Time;durP1;ratioP1;P1;durP2;ratioP2;P2;SDS_P1;SDS_P2;PMS_P1;PMS_P2;Temp;Humidity;BMP_temperature;BMP_pressure;BME280_temperature;BME280_humidity;BME280_pressure;Samples;Min_cycle;Max_cycle;Signal;HPM_P1;HPM_P2
2023/08/31 00:02:24;;;;;;;0.10;0.10;;;;;;;;;;5068480;28;20554;-72
2023/08/31 00:04:52;;;;;;;0.10;0.10;;;;;;;;;;5063012;28;20254;-72
2023/08/31 00:07:18;;;;;;;0.10;0.10;;;;;;;;;;5068444;28;20264;-72
2023/08/31 00:09:44;;;;;;;0.10;0.10;;;;;;;;;;5063190;28;20238;-72
2023/08/31 00:12:11;;;;;;;0.10;0.10;;;;;;;;;;5068398;28;20239;-72
2023/08/31 00:14:38;;;;;;;0.10;0.10;;;;;;;;;;5063337;28;20233;-72
2023/08/31 00:17:05;;;;;;;0.10;0.10;;;;;;;;;;5067867;28;20306;-72
2023/08/31 00:19:32;;;;;;;0.10;0.10;;;;;;;;;;5063525;28;20386;-73
2023/08/31 00:21:59;;;;;;;0.10;0.10;;;;;;;;;;5067163;28;20266;-73
2023/08/31 00:24:29;;;;;;;0.10;0.10;;;;;;;;;;5063993;28;20233;-72
2023/08/31 00:26:56;;;;;;;0.10;0.10;;;;;;;;;;5066761;28;20611;-72
2023/08/31 00:29:23;;;;;;;0.10;0.10;;;;;;;;;;5065052;28;20224;-72
2023/08/31 00:31:51;;;;;;;0.10;0.10;;;;;;;;;;5069765;28;20592;-72
2023/08/31 00:34:17;;;;;;;0.10;0.10;;;;;;;;;;5068733;28;20214;-72
2023/08/31 00:36:45;;;;;;;0.10;0.10;;;;;;;;;;5068659;28;20231;-73
2023/08/31 00:39:11;;;;;;;0.10;0.10;;;;;;;;;;5069547;28;20206;-72
2023/08/31 00:41:38;;;;;;;0.10;0.10;;;;;;;;;;5068025;28;20336;-73
2023/08/31 00:44:05;;;;;;;0.10;0.10;;;;;;;;;;5070145;28;20237;-72
2023/08/31 00:46:31;;;;;;;0.10;0.10;;;;;;;;;;5067148;28;20238;-72
2023/08/31 00:48:58;;;;;;;0.10;0.10;;;;;;;;;;5071241;28;20214;-72
2023/08/31 00:51:24;;;;;;;0.10;0.10;;;;;;;;;;5066206;28;20428;-72
2023/08/31 00:53:53;;;;;;;0.10;0.10;;;;;;;;;;5071700;28;20251;-72
2023/08/31 00:56:20;;;;;;;0.10;0.10;;;;;;;;;;5065392;28;20238;-72
2023/08/31 00:58:46;;;;;;;0.10;0.10;;;;;;;;;;5072661;28;20397;-72
2023/08/31 01:01:16;;;;;;;0.10;0.10;;;;;;;;;;5064529;28;20609;-73
2023/08/31 01:03:44;;;;;;;0.10;0.10;;;;;;;;;;5073000;28;20242;-73
2023/08/31 01:06:15;;;;;;;0.10;0.10;;;;;;;;;;5064249;28;20273;-72
2023/08/31 01:08:44;;;;;;;0.10;0.10;;;;;;;;;;5073156;28;20533;-72
2023/08/31 01:11:17;;;;;;;0.10;0.10;;;;;;;;;;5064094;28;20251;-73
2023/08/31 01:13:45;;;;;;;0.10;0.10;;;;;;;;;;5072474;28;20201;-73
2023/08/31 01:16:13;;;;;;;0.10;0.10;;;;;;;;;;5064088;28;20276;-72
2023/08/31 01:18:40;;;;;;;0.10;0.10;;;;;;;;;;5073177;28;20455;-73
2023/08/31 01:21:10;;;;;;;0.10;0.10;;;;;;;;;;5063286;28;20243;-72
2023/08/31 01:23:47;;;;;;;0.10;0.10;;;;;;;;;;5073131;28;20226;-72
2023/08/31 01:26:14;;;;;;;0.10;0.10;;;;;;;;;;5064282;28;20319;-73
2023/08/31 01:28:40;;;;;;;0.10;0.10;;;;;;;;;;5072927;28;20532;-72
2023/08/31 01:31:07;;;;;;;0.10;0.10;;;;;;;;;;5063288;28;20241;-73
2023/08/31 01:33:33;;;;;;;0.10;0.10;;;;;;;;;;5073412;28;20205;-72
2023/08/31 01:36:00;;;;;;;0.10;0.10;;;;;;;;;;5062220;28;20464;-72
2023/08/31 01:38:29;;;;;;;0.10;0.10;;;;;;;;;;5074032;28;20291;-73
2023/08/31 01:41:03;;;;;;;0.10;0.10;;;;;;;;;;5061539;28;20257;-73
2023/08/31 01:43:29;;;;;;;0.10;0.10;;;;;;;;;;5074058;28;20201;-73
2023/08/31 01:45:56;;;;;;;0.10;0.10;;;;;;;;;;5061217;28;20245;-72
2023/08/31 01:48:23;;;;;;;0.10;0.10;;;;;;;;;;5074498;28;20242;-73
2023/08/31 01:50:49;;;;;;;0.10;0.10;;;;;;;;;;5060619;28;20309;-73
2023/08/31 01:53:15;;;;;;;0.10;0.10;;;;;;;;;;5075285;28;20239;-73
2023/08/31 01:55:42;;;;;;;0.10;0.10;;;;;;;;;;5059502;28;20309;-72
2023/08/31 01:58:10;;;;;;;0.10;0.10;;;;;;;;;;5076038;28;20233;-72
2023/08/31 02:00:38;;;;;;;0.10;0.10;;;;;;;;;;5058387;28;20245;-72
2023/08/31 02:03:06;;;;;;;0.10;0.10;;;;;;;;;;5076942;28;20214;-73
2023/08/31 02:05:32;;;;;;;0.10;0.10;;;;;;;;;;5058219;28;20239;-73
2023/08/31 02:07:58;;;;;;;0.10;0.10;;;;;;;;;;5077507;28;20393;-72
2023/08/31 02:10:26;;;;;;;0.10;0.10;;;;;;;;;;5057109;28;20615;-72
2023/08/31 02:12:52;;;;;;;0.10;0.10;;;;;;;;;;5078230;28;20207;-72
2023/08/31 02:15:20;;;;;;;0.10;0.10;;;;;;;;;;5056252;28;20452;-73
2023/08/31 02:17:46;;;;;;;0.10;0.10;;;;;;;;;;5078706;28;20280;-73
2023/08/31 02:20:14;;;;;;;0.10;0.10;;;;;;;;;;5055450;28;20210;-72
2023/08/31 02:22:40;;;;;;;0.10;0.10;;;;;;;;;;5079512;28;20203;-73
2023/08/31 02:25:07;;;;;;;0.10;0.10;;;;;;;;;;5064740;28;20247;-73
2023/08/31 02:27:33;;;;;;;0.10;0.10;;;;;;;;;;5033383;28;20324;-73
2023/08/31 02:30:00;;;;;;;0.10;0.10;;;;;;;;;;5044926;28;20205;-73
2023/08/31 02:32:28;;;;;;;0.10;0.10;;;;;;;;;;5068953;28;20242;-73
2023/08/31 02:34:54;;;;;;;0.10;0.10;;;;;;;;;;5064523;28;20249;-73
2023/08/31 02:37:21;;;;;;;0.10;0.10;;;;;;;;;;5067847;28;20240;-73
2023/08/31 02:39:47;;;;;;;0.10;0.10;;;;;;;;;;5044579;28;20244;-71
2023/08/31 02:48:21;;;;;;;0.10;0.10;;;;;;;;;;5044285;28;20193;-72
2023/08/31 02:50:47;;;;;;;0.10;0.10;;;;;;;;;;5044590;28;20267;-72
2023/08/31 02:53:13;;;;;;;0.10;0.10;;;;;;;;;;5065463;28;20277;-72
2023/08/31 02:55:40;;;;;;;0.10;0.10;;;;;;;;;;5042543;28;20241;-72
2023/08/31 02:58:06;;;;;;;0.10;0.10;;;;;;;;;;5067479;28;20294;-72
2023/08/31 03:00:33;;;;;;;0.10;0.10;;;;;;;;;;5040653;28;20580;-72
2023/08/31 03:02:59;;;;;;;0.10;0.10;;;;;;;;;;5069226;28;20210;-72
2023/08/31 03:05:27;;;;;;;0.10;0.10;;;;;;;;;;5038744;28;20279;-72
2023/08/31 03:07:53;;;;;;;0.10;0.10;;;;;;;;;;5071047;28;20222;-72
2023/08/31 03:10:21;;;;;;;0.10;0.10;;;;;;;;;;5036940;28;20229;-72
2023/08/31 03:12:48;;;;;;;0.10;0.10;;;;;;;;;;5072674;28;20232;-72
2023/08/31 03:15:14;;;;;;;0.10;0.10;;;;;;;;;;5035326;28;20246;-72
2023/08/31 03:17:40;;;;;;;0.10;0.10;;;;;;;;;;5074458;28;20470;-72
2023/08/31 03:20:08;;;;;;;0.10;0.10;;;;;;;;;;5043998;28;20348;-72
2023/08/31 03:22:36;;;;;;;0.10;0.10;;;;;;;;;;5052195;28;20213;-71
2023/08/31 03:25:02;;;;;;;0.10;0.10;;;;;;;;;;5063933;28;20214;-72
2023/08/31 03:27:28;;;;;;;0.10;0.10;;;;;;;;;;5068934;28;20239;-72
2023/08/31 03:29:55;;;;;;;0.10;0.10;;;;;;;;;;5063479;28;20270;-72
2023/08/31 03:32:21;;;;;;;0.10;0.10;;;;;;;;;;5068910;28;20304;-73
2023/08/31 03:34:47;;;;;;;0.10;0.10;;;;;;;;;;5063783;28;20282;-72
2023/08/31 03:37:14;;;;;;;0.10;0.10;;;;;;;;;;5068764;28;20298;-72
2023/08/31 03:39:42;;;;;;;0.27;0.27;;;;;;;;;;5063623;28;20451;-72
2023/08/31 03:42:09;;;;;;;0.10;0.10;;;;;;;;;;5068673;28;20307;-72
2023/08/31 03:44:35;;;;;;;0.10;0.10;;;;;;;;;;5063608;28;20421;-71
2023/08/31 03:47:02;;;;;;;0.10;0.10;;;;;;;;;;5067706;28;20252;-72
2023/08/31 03:49:30;;;;;;;0.10;0.10;;;;;;;;;;5064050;28;20207;-72
2023/08/31 03:51:56;;;;;;;0.10;0.10;;;;;;;;;;5067145;28;20298;-72
2023/08/31 03:54:22;;;;;;;0.10;0.10;;;;;;;;;;5064730;28;20463;-72
2023/08/31 03:56:50;;;;;;;0.10;0.10;;;;;;;;;;5065859;28;20241;-72
2023/08/31 03:59:17;;;;;;;0.10;0.10;;;;;;;;;;5065647;28;20206;-72
2023/08/31 04:01:43;;;;;;;0.10;0.10;;;;;;;;;;5065263;28;20242;-72
2023/08/31 04:04:09;;;;;;;0.10;0.10;;;;;;;;;;5066333;28;20461;-72
2023/08/31 04:06:36;;;;;;;0.10;0.10;;;;;;;;;;5067183;28;20273;-72
2023/08/31 04:09:02;;;;;;;0.10;0.10;;;;;;;;;;5072440;28;20200;-72
2023/08/31 04:11:29;;;;;;;0.10;0.10;;;;;;;;;;5067386;28;20286;-72
2023/08/31 04:13:57;;;;;;;0.10;0.10;;;;;;;;;;5072399;28;20441;-72
2023/08/31 04:16:23;;;;;;;0.10;0.10;;;;;;;;;;5066749;28;20247;-72
2023/08/31 04:18:51;;;;;;;0.10;0.10;;;;;;;;;;5072589;28;20293;-72
2023/08/31 04:21:17;;;;;;;0.10;0.10;;;;;;;;;;5065979;28;20294;-72
2023/08/31 04:23:44;;;;;;;0.10;0.10;;;;;;;;;;5073549;28;20476;-73
2023/08/31 04:26:11;;;;;;;0.10;0.10;;;;;;;;;;5064975;28;20445;-72
2023/08/31 04:28:37;;;;;;;0.10;0.10;;;;;;;;;;5074400;28;20203;-72
2023/08/31 04:31:07;;;;;;;0.10;0.10;;;;;;;;;;5063984;28;20236;-72
2023/08/31 04:33:34;;;;;;;0.10;0.10;;;;;;;;;;5074687;28;20249;-72
2023/08/31 04:36:00;;;;;;;0.10;0.10;;;;;;;;;;5063487;28;20256;-72
2023/08/31 04:38:27;;;;;;;0.10;0.10;;;;;;;;;;5075480;28;20229;-72
2023/08/31 04:40:53;;;;;;;0.10;0.10;;;;;;;;;;5062420;28;20238;-72
2023/08/31 04:43:19;;;;;;;0.10;0.10;;;;;;;;;;5076399;28;20237;-72
2023/08/31 04:45:46;;;;;;;0.10;0.10;;;;;;;;;;5061515;28;20312;-72
2023/08/31 04:48:14;;;;;;;0.10;0.10;;;;;;;;;;5077295;28;20217;-72
2023/08/31 04:50:40;;;;;;;0.10;0.10;;;;;;;;;;5060665;28;20235;-72
2023/08/31 04:53:07;;;;;;;0.10;0.10;;;;;;;;;;5077560;28;20222;-73
2023/08/31 04:55:33;;;;;;;0.10;0.10;;;;;;;;;;5059309;28;20450;-72
2023/08/31 04:58:00;;;;;;;0.10;0.10;;;;;;;;;;5078408;28;20213;-72
2023/08/31 05:00:26;;;;;;;0.10;0.10;;;;;;;;;;5058570;28;20213;-72
2023/08/31 05:02:52;;;;;;;0.10;0.10;;;;;;;;;;5079222;28;20262;-72
2023/08/31 05:05:20;;;;;;;0.10;0.10;;;;;;;;;;5057523;28;20242;-72
2023/08/31 05:07:46;;;;;;;0.10;0.10;;;;;;;;;;5080328;28;20383;-72
2023/08/31 05:10:13;;;;;;;0.10;0.10;;;;;;;;;;5056496;28;20206;-73
2023/08/31 05:12:39;;;;;;;0.10;0.10;;;;;;;;;;5081166;28;20202;-72
2023/08/31 05:15:06;;;;;;;0.10;0.10;;;;;;;;;;5065665;28;20308;-72
2023/08/31 05:17:33;;;;;;;0.10;0.10;;;;;;;;;;5034554;28;20293;-72
2023/08/31 05:20:00;;;;;;;0.10;0.10;;;;;;;;;;5045886;28;20246;-72
2023/08/31 05:22:28;;;;;;;0.10;0.10;;;;;;;;;;5070255;28;20258;-74
2023/08/31 05:24:54;;;;;;;0.10;0.10;;;;;;;;;;5066174;28;20447;-73
2023/08/31 05:27:21;;;;;;;0.10;0.10;;;;;;;;;;5071101;28;20246;-73
2023/08/31 05:29:47;;;;;;;0.10;0.10;;;;;;;;;;5066027;28;20237;-73
2023/08/31 05:32:13;;;;;;;0.10;0.10;;;;;;;;;;5070997;28;20238;-71
2023/08/31 05:34:40;;;;;;;0.10;0.10;;;;;;;;;;5065721;28;20207;-72
2023/08/31 05:37:06;;;;;;;0.10;0.10;;;;;;;;;;5070592;28;20256;-71
2023/08/31 05:39:34;;;;;;;0.10;0.10;;;;;;;;;;5065892;28;20486;-72
2023/08/31 05:42:00;;;;;;;0.10;0.10;;;;;;;;;;5069912;28;20295;-71
2023/08/31 05:44:27;;;;;;;0.10;0.10;;;;;;;;;;5066544;28;20242;-72
2023/08/31 05:46:53;;;;;;;0.10;0.10;;;;;;;;;;5068807;28;20258;-73
2023/08/31 05:49:19;;;;;;;0.10;0.10;;;;;;;;;;5067232;28;20202;-72
2023/08/31 05:51:46;;;;;;;0.10;0.10;;;;;;;;;;5067732;28;20308;-71
2023/08/31 05:54:13;;;;;;;0.10;0.10;;;;;;;;;;5068069;28;20253;-71
2023/08/31 05:56:40;;;;;;;0.10;0.10;;;;;;;;;;5066906;28;20461;-72
2023/08/31 05:59:07;;;;;;;0.10;0.10;;;;;;;;;;5068558;28;20265;-74
2023/08/31 06:01:33;;;;;;;0.10;0.10;;;;;;;;;;5065467;28;20307;-72
2023/08/31 06:04:00;;;;;;;0.10;0.10;;;;;;;;;;5069895;28;20241;-72
2023/08/31 06:06:26;;;;;;;0.10;0.10;;;;;;;;;;5065151;28;20253;-73
2023/08/31 06:08:53;;;;;;;0.10;0.10;;;;;;;;;;5070521;28;20210;-72
2023/08/31 06:11:19;;;;;;;0.10;0.10;;;;;;;;;;5064133;28;20488;-73
2023/08/31 06:13:50;;;;;;;0.10;0.10;;;;;;;;;;5071356;28;20400;-73
2023/08/31 06:16:16;;;;;;;0.10;0.10;;;;;;;;;;5063221;28;20252;-73
2023/08/31 06:18:43;;;;;;;0.10;0.10;;;;;;;;;;5071588;28;20264;-72
2023/08/31 06:21:09;;;;;;;0.10;0.10;;;;;;;;;;5062521;28;20267;-73
2023/08/31 06:23:36;;;;;;;0.10;0.10;;;;;;;;;;5072135;28;20472;-73
2023/08/31 06:26:03;;;;;;;0.10;0.10;;;;;;;;;;5061621;28;20492;-73
2023/08/31 06:28:29;;;;;;;0.10;0.10;;;;;;;;;;5072109;28;20266;-73
2023/08/31 06:30:57;;;;;;;0.10;0.10;;;;;;;;;;5060472;28;20460;-73
2023/08/31 06:33:23;;;;;;;0.10;0.10;;;;;;;;;;5073939;28;20242;-73
2023/08/31 06:35:51;;;;;;;0.10;0.10;;;;;;;;;;5059601;28;20294;-73
2023/08/31 06:38:17;;;;;;;0.10;0.10;;;;;;;;;;5074432;28;20301;-72
2023/08/31 06:40:44;;;;;;;0.10;0.10;;;;;;;;;;5059000;28;20241;-73
2023/08/31 06:43:10;;;;;;;0.10;0.10;;;;;;;;;;5075260;28;20211;-73
2023/08/31 06:45:37;;;;;;;0.10;0.10;;;;;;;;;;5057982;28;20308;-73
2023/08/31 06:48:05;;;;;;;0.10;0.10;;;;;;;;;;5076116;28;20273;-73
2023/08/31 06:50:31;;;;;;;0.80;0.80;;;;;;;;;;5056947;28;20246;-73
2023/08/31 06:52:57;;;;;;;0.10;0.10;;;;;;;;;;5076696;28;20281;-73
2023/08/31 06:55:24;;;;;;;0.10;0.10;;;;;;;;;;5055804;28;20279;-73
2023/08/31 06:57:50;;;;;;;0.10;0.10;;;;;;;;;;5077512;28;20243;-73
2023/08/31 07:00:18;;;;;;;0.10;0.10;;;;;;;;;;5054677;28;20206;-73
2023/08/31 07:02:44;;;;;;;0.10;0.10;;;;;;;;;;5078420;28;20399;-73
2023/08/31 07:05:12;;;;;;;0.10;0.10;;;;;;;;;;5053960;28;20269;-73
2023/08/31 07:07:38;;;;;;;0.10;0.10;;;;;;;;;;5079150;28;20214;-73
2023/08/31 07:10:06;;;;;;;0.10;0.10;;;;;;;;;;5064162;28;20227;-73
2023/08/31 07:12:33;;;;;;;0.10;0.10;;;;;;;;;;5032721;28;20233;-73
2023/08/31 07:14:59;;;;;;;0.10;0.10;;;;;;;;;;5044087;28;20241;-71
2023/08/31 07:17:26;;;;;;;0.10;0.10;;;;;;;;;;5068189;28;20252;-72
2023/08/31 07:19:53;;;;;;;0.10;0.10;;;;;;;;;;5063946;28;20295;-71
2023/08/31 07:22:21;;;;;;;0.10;0.10;;;;;;;;;;5067502;28;20242;-72
2023/08/31 07:24:47;;;;;;;0.10;0.10;;;;;;;;;;5043636;28;20258;-72
2023/08/31 07:27:13;;;;;;;0.10;0.10;;;;;;;;;;5065587;28;20305;-72
2023/08/31 07:29:40;;;;;;;0.10;0.10;;;;;;;;;;5043963;28;20209;-72
2023/08/31 07:32:06;;;;;;;0.10;0.10;;;;;;;;;;5065419;28;20235;-72
2023/08/31 07:34:34;;;;;;;0.10;0.10;;;;;;;;;;5043941;28;20455;-72
2023/08/31 07:37:00;;;;;;;0.10;0.10;;;;;;;;;;5063537;28;20304;-72
2023/08/31 07:39:28;;;;;;;0.10;0.10;;;;;;;;;;5044906;28;20256;-71
2023/08/31 07:41:55;;;;;;;0.10;0.10;;;;;;;;;;5062063;28;20554;-71
2023/08/31 07:44:21;;;;;;;0.10;0.10;;;;;;;;;;5046874;28;20210;-72
2023/08/31 07:46:48;;;;;;;0.10;0.10;;;;;;;;;;5059852;28;20317;-72
2023/08/31 07:49:14;;;;;;;0.10;0.10;;;;;;;;;;5048872;28;20512;-72
2023/08/31 07:51:40;;;;;;;0.10;0.10;;;;;;;;;;5058106;28;20302;-72
2023/08/31 07:54:07;;;;;;;0.10;0.10;;;;;;;;;;5050496;28;20243;-72
2023/08/31 07:56:35;;;;;;;0.10;0.10;;;;;;;;;;5056176;28;20239;-72
2023/08/31 07:59:01;;;;;;;0.10;0.10;;;;;;;;;;5052262;28;20260;-72
2023/08/31 08:01:28;;;;;;;0.10;0.10;;;;;;;;;;5054471;28;20239;-72
2023/08/31 08:03:54;;;;;;;0.10;0.10;;;;;;;;;;5053886;28;20204;-73
2023/08/31 08:06:20;;;;;;;0.10;0.10;;;;;;;;;;5052431;28;20298;-72
2023/08/31 08:08:47;;;;;;;0.10;0.10;;;;;;;;;;5055991;28;20268;-72
2023/08/31 08:11:13;;;;;;;0.10;0.10;;;;;;;;;;5050460;28;20251;-72
2023/08/31 08:13:41;;;;;;;0.00;0.00;;;;;;;;;;5057639;28;20244;-73
2023/08/31 08:16:08;;;;;;;0.10;0.10;;;;;;;;;;5049036;28;20254;-73
2023/08/31 08:18:35;;;;;;;0.10;0.10;;;;;;;;;;5058581;28;20230;-72
2023/08/31 08:21:01;;;;;;;0.10;0.10;;;;;;;;;;5047412;28;20529;-74
2023/08/31 08:23:27;;;;;;;0.10;0.10;;;;;;;;;;5060886;28;20427;-72
2023/08/31 08:25:54;;;;;;;0.00;0.00;;;;;;;;;;5045538;28;20396;-73
2023/08/31 08:28:20;;;;;;;0.10;0.10;;;;;;;;;;5062730;28;20454;-73
2023/08/31 08:30:48;;;;;;;0.10;0.10;;;;;;;;;;5043566;28;20501;-75
2023/08/31 08:33:14;;;;;;;0.00;0.00;;;;;;;;;;5064480;28;20240;-73
2023/08/31 08:35:41;;;;;;;0.10;0.10;;;;;;;;;;5041821;28;20239;-73
2023/08/31 08:38:07;;;;;;;0.10;0.10;;;;;;;;;;5066311;28;20232;-72
2023/08/31 08:40:33;;;;;;;0.10;0.10;;;;;;;;;;5039792;28;20310;-72
2023/08/31 08:43:01;;;;;;;0.10;0.10;;;;;;;;;;5068180;28;20459;-73
2023/08/31 08:45:30;;;;;;;0.10;0.10;;;;;;;;;;5037740;28;20205;-73
2023/08/31 08:47:58;;;;;;;0.10;0.10;;;;;;;;;;5069199;28;20401;-73
2023/08/31 08:50:25;;;;;;;0.10;0.10;;;;;;;;;;5038158;28;20229;-73
2023/08/31 08:52:51;;;;;;;0.10;0.10;;;;;;;;;;5074087;28;20210;-73
2023/08/31 08:55:18;;;;;;;0.10;0.10;;;;;;;;;;5038956;28;20219;-73
2023/08/31 08:57:45;;;;;;;0.10;0.10;;;;;;;;;;5075685;28;20555;-73
2023/08/31 09:00:11;;;;;;;0.10;0.10;;;;;;;;;;5036982;28;20247;-73
2023/08/31 09:02:38;;;;;;;0.10;0.10;;;;;;;;;;5077787;28;20272;-73
2023/08/31 09:05:06;;;;;;;0.10;0.10;;;;;;;;;;5046540;28;20396;-73
2023/08/31 09:07:35;;;;;;;0.00;0.00;;;;;;;;;;5054976;28;20212;-73
2023/08/31 09:10:01;;;;;;;0.10;0.10;;;;;;;;;;5066145;28;20232;-73
2023/08/31 09:12:28;;;;;;;0.10;0.10;;;;;;;;;;5071639;28;20242;-73
2023/08/31 09:14:58;;;;;;;0.10;0.10;;;;;;;;;;5066383;28;20278;-74
2023/08/31 09:17:25;;;;;;;0.10;0.10;;;;;;;;;;5071486;28;20243;-73
2023/08/31 09:19:59;;;;;;;0.10;0.10;;;;;;;;;;5066199;28;20589;-75
2023/08/31 09:22:27;;;;;;;0.00;0.00;;;;;;;;;;5071345;28;20465;-74
2023/08/31 09:24:53;;;;;;;0.10;0.10;;;;;;;;;;5065919;28;20207;-73
2023/08/31 09:27:22;;;;;;;0.13;0.13;;;;;;;;;;5071298;28;20250;-74
2023/08/31 09:29:48;;;;;;;0.10;0.10;;;;;;;;;;5065811;28;20274;-75
2023/08/31 09:32:16;;;;;;;0.10;0.10;;;;;;;;;;5071113;28;20258;-73
2023/08/31 09:34:43;;;;;;;0.10;0.10;;;;;;;;;;5065712;28;20244;-73
2023/08/31 09:37:09;;;;;;;0.10;0.10;;;;;;;;;;5071036;28;20254;-73
2023/08/31 09:39:38;;;;;;;0.10;0.10;;;;;;;;;;5065392;28;20542;-74
2023/08/31 09:42:04;;;;;;;0.10;0.10;;;;;;;;;;5070424;28;20307;-73
2023/08/31 09:44:31;;;;;;;0.10;0.10;;;;;;;;;;5065813;28;20199;-74
2023/08/31 09:46:58;;;;;;;0.10;0.10;;;;;;;;;;5069378;28;20246;-74
2023/08/31 09:49:25;;;;;;;0.10;0.10;;;;;;;;;;5066931;28;20204;-73
2023/08/31 09:51:52;;;;;;;0.10;0.10;;;;;;;;;;5068717;28;20263;-73
2023/08/31 09:54:18;;;;;;;0.10;0.10;;;;;;;;;;5067149;28;20220;-73
2023/08/31 09:56:47;;;;;;;0.10;0.10;;;;;;;;;;5067684;28;20251;-73
2023/08/31 09:59:15;;;;;;;0.10;0.10;;;;;;;;;;5068007;28;20255;-72
2023/08/31 10:01:42;;;;;;;0.10;0.10;;;;;;;;;;5066211;28;20318;-72
2023/08/31 10:04:08;;;;;;;0.10;0.10;;;;;;;;;;5068360;28;20217;-72
2023/08/31 10:06:35;;;;;;;0.10;0.10;;;;;;;;;;5066209;28;20243;-72
2023/08/31 10:09:02;;;;;;;0.10;0.10;;;;;;;;;;5069078;28;20202;-73
2023/08/31 10:11:29;;;;;;;0.10;0.10;;;;;;;;;;5065259;28;20254;-71
2023/08/31 10:13:58;;;;;;;0.10;0.10;;;;;;;;;;5070230;28;20411;-72
2023/08/31 10:16:25;;;;;;;0.30;0.30;;;;;;;;;;5064476;28;20293;-72
2023/08/31 10:18:52;;;;;;;0.10;0.10;;;;;;;;;;5070232;28;20276;-72
2023/08/31 10:21:19;;;;;;;0.10;0.10;;;;;;;;;;5063795;28;20263;-73
2023/08/31 10:23:46;;;;;;;0.10;0.10;;;;;;;;;;5070906;28;20260;-73
2023/08/31 10:26:12;;;;;;;0.10;0.10;;;;;;;;;;5062787;28;20248;-72
2023/08/31 10:28:42;;;;;;;0.10;0.10;;;;;;;;;;5071777;28;20235;-72
2023/08/31 10:31:10;;;;;;;0.10;0.10;;;;;;;;;;5062125;28;20313;-72
2023/08/31 10:33:40;;;;;;;0.03;0.03;;;;;;;;;;5072008;28;20205;-73
2023/08/31 10:36:10;;;;;;;0.08;0.08;;;;;;;;;;5061630;28;20305;-73
2023/08/31 10:38:37;;;;;;;0.10;0.10;;;;;;;;;;5071786;28;20266;-73
2023/08/31 10:41:18;;;;;;;0.10;0.10;;;;;;;;;;5061151;28;20246;-73
2023/08/31 10:43:46;;;;;;;0.10;0.10;;;;;;;;;;5070742;28;20194;-73
2023/08/31 10:46:33;;;;;;;0.10;0.10;;;;;;;;;;5062133;28;20245;-73
2023/08/31 10:49:02;;;;;;;0.10;0.10;;;;;;;;;;5062148;28;20458;-72
2023/08/31 10:51:29;;;;;;;0.10;0.10;;;;;;;;;;5064390;28;20236;-72
2023/08/31 10:54:05;;;;;;;0.13;0.13;;;;;;;;;;5069024;28;20275;-73
2023/08/31 10:56:32;;;;;;;0.10;0.10;;;;;;;;;;5064599;28;20270;-74
2023/08/31 10:58:59;;;;;;;0.10;0.10;;;;;;;;;;5069017;28;20391;-77
2023/08/31 11:01:52;;;;;;;0.00;0.00;;;;;;;;;;5063672;28;20257;-75
2023/08/31 11:04:20;;;;;;;0.10;0.10;;;;;;;;;;5066404;28;20211;-76
2023/08/31 11:06:46;;;;;;;0.10;0.10;;;;;;;;;;5066424;28;20305;-75
2023/08/31 11:09:19;;;;;;;0.10;0.10;;;;;;;;;;5066688;28;20213;-76
2023/08/31 11:11:45;;;;;;;0.00;0.00;;;;;;;;;;5066491;28;20431;-75
2023/08/31 11:14:12;;;;;;;0.00;0.00;;;;;;;;;;5066289;28;20208;-75
2023/08/31 11:16:38;;;;;;;0.10;0.10;;;;;;;;;;5065188;28;20301;-76
2023/08/31 11:19:05;;;;;;;0.08;0.08;;;;;;;;;;5067496;28;20231;-77
2023/08/31 11:21:33;;;;;;;0.10;0.10;;;;;;;;;;5064425;28;20251;-77
2023/08/31 11:23:59;;;;;;;0.00;0.00;;;;;;;;;;5068369;28;20258;-78
2023/08/31 11:26:26;;;;;;;0.00;0.00;;;;;;;;;;5063404;28;20283;-78
2023/08/31 11:28:52;;;;;;;0.00;0.00;;;;;;;;;;5068950;28;20258;-75
2023/08/31 11:31:24;;;;;;;0.08;0.08;;;;;;;;;;5062705;28;20494;-76
2023/08/31 11:33:50;;;;;;;0.00;0.00;;;;;;;;;;5069228;28;20267;-77
2023/08/31 11:36:17;;;;;;;0.10;0.10;;;;;;;;;;5062114;28;20312;-77
2023/08/31 11:38:45;;;;;;;0.10;0.10;;;;;;;;;;5069944;28;20207;-77
2023/08/31 11:41:12;;;;;;;0.10;0.10;;;;;;;;;;5061323;28;20446;-77
2023/08/31 11:43:39;;;;;;;0.10;0.10;;;;;;;;;;5070677;28;20214;-76
2023/08/31 11:46:06;;;;;;;0.10;0.10;;;;;;;;;;5060671;28;20484;-76
2023/08/31 11:48:32;;;;;;;0.10;0.10;;;;;;;;;;5071359;28;20208;-77
2023/08/31 11:50:59;;;;;;;0.10;0.10;;;;;;;;;;5059890;28;20482;-78
2023/08/31 11:53:25;;;;;;;0.00;0.00;;;;;;;;;;5072536;28;20239;-79
2023/08/31 11:55:53;;;;;;;0.05;0.05;;;;;;;;;;5059050;28;20254;-78
2023/08/31 11:58:20;;;;;;;0.10;0.10;;;;;;;;;;5073175;28;20211;-78
2023/08/31 12:00:46;;;;;;;0.00;0.00;;;;;;;;;;5057555;28;20235;-79
2023/08/31 12:03:13;;;;;;;0.10;0.10;;;;;;;;;;5074559;28;20207;-77
2023/08/31 12:05:45;;;;;;;0.08;0.08;;;;;;;;;;5057283;28;20254;-78
2023/08/31 12:08:12;;;;;;;0.00;0.00;;;;;;;;;;5073934;28;20235;-75
2023/08/31 12:10:41;;;;;;;0.10;0.10;;;;;;;;;;5056840;28;20302;-75
2023/08/31 12:13:12;;;;;;;0.10;0.10;;;;;;;;;;5074695;28;20427;-74
2023/08/31 12:15:39;;;;;;;0.10;0.10;;;;;;;;;;5056931;28;20249;-75
2023/08/31 12:18:09;;;;;;;0.00;0.00;;;;;;;;;;5074531;28;20278;-75
2023/08/31 12:20:40;;;;;;;0.08;0.08;;;;;;;;;;5056354;28;20305;-75
2023/08/31 12:23:07;;;;;;;0.20;0.20;;;;;;;;;;5074428;28;20596;-76
2023/08/31 12:25:33;;;;;;;0.10;0.10;;;;;;;;;;5056950;28;20247;-75
2023/08/31 12:27:59;;;;;;;0.00;0.00;;;;;;;;;;5079306;28;20313;-75
2023/08/31 12:30:27;;;;;;;0.10;0.10;;;;;;;;;;5059337;28;20239;-75
2023/08/31 12:32:54;;;;;;;0.00;0.00;;;;;;;;;;5079999;28;20227;-77
2023/08/31 12:35:21;;;;;;;0.10;0.10;;;;;;;;;;5058438;28;20238;-77
2023/08/31 12:37:47;;;;;;;0.00;0.00;;;;;;;;;;5080769;28;20226;-76
2023/08/31 12:40:15;;;;;;;0.10;0.10;;;;;;;;;;5057393;28;20227;-77
2023/08/31 12:42:41;;;;;;;0.00;0.00;;;;;;;;;;5081192;28;20275;-77
2023/08/31 12:45:08;;;;;;;0.00;0.00;;;;;;;;;;5061825;28;20210;-75
2023/08/31 12:47:36;;;;;;;0.00;0.00;;;;;;;;;;5082118;28;20216;-74
2023/08/31 12:50:03;;;;;;;0.10;0.10;;;;;;;;;;5066548;28;20235;-76
2023/08/31 12:52:30;;;;;;;0.00;0.00;;;;;;;;;;5071928;28;20236;-78
2023/08/31 12:54:56;;;;;;;0.00;0.00;;;;;;;;;;5066327;28;20239;-77
2023/08/31 12:57:22;;;;;;;0.05;0.05;;;;;;;;;;5071634;28;20298;-79
2023/08/31 12:59:49;;;;;;;0.00;0.00;;;;;;;;;;5066359;28;20236;-78
2023/08/31 13:02:15;;;;;;;0.10;0.10;;;;;;;;;;5071809;28;20559;-80
2023/08/31 13:04:43;;;;;;;0.00;0.00;;;;;;;;;;5066201;28;20538;-81
2023/08/31 13:07:09;;;;;;;0.00;0.00;;;;;;;;;;5071542;28;20239;-80
2023/08/31 13:09:35;;;;;;;0.00;0.00;;;;;;;;;;5066749;28;20242;-83
2023/08/31 13:12:02;;;;;;;0.00;0.00;;;;;;;;;;5070782;28;20251;-78
2023/08/31 13:14:28;;;;;;;0.00;0.00;;;;;;;;;;5066886;28;20434;-78
2023/08/31 13:16:55;;;;;;;0.08;0.08;;;;;;;;;;5069694;28;20239;-78
2023/08/31 13:19:22;;;;;;;0.00;0.00;;;;;;;;;;5067490;28;20539;-78
2023/08/31 13:21:50;;;;;;;0.00;0.00;;;;;;;;;;5068741;28;20288;-77
2023/08/31 13:24:16;;;;;;;0.10;0.10;;;;;;;;;;5068129;28;20227;-78
2023/08/31 13:26:47;;;;;;;0.00;0.00;;;;;;;;;;5067912;28;20239;-77
2023/08/31 13:29:13;;;;;;;0.10;0.10;;;;;;;;;;5068626;28;20215;-76
2023/08/31 13:31:40;;;;;;;0.00;0.00;;;;;;;;;;5067414;28;20239;-77
2023/08/31 13:34:07;;;;;;;0.10;0.10;;;;;;;;;;5069505;28;20238;-77
2023/08/31 13:36:34;;;;;;;0.03;0.03;;;;;;;;;;5066185;28;20239;-76
2023/08/31 13:39:02;;;;;;;0.00;0.00;;;;;;;;;;5070361;28;20203;-77
2023/08/31 13:41:29;;;;;;;0.00;0.00;;;;;;;;;;5065725;28;20239;-77
2023/08/31 13:43:55;;;;;;;0.10;0.10;;;;;;;;;;5070703;28;20452;-77
2023/08/31 13:46:21;;;;;;;0.10;0.10;;;;;;;;;;5064639;28;20297;-76
2023/08/31 13:48:49;;;;;;;0.05;0.05;;;;;;;;;;5071865;28;20372;-76
2023/08/31 13:51:15;;;;;;;0.00;0.00;;;;;;;;;;5063777;28;20245;-76
2023/08/31 13:53:41;;;;;;;0.00;0.00;;;;;;;;;;5072520;28;20466;-80
2023/08/31 13:56:09;;;;;;;0.10;0.10;;;;;;;;;;5063011;28;20251;-81
2023/08/31 13:58:36;;;;;;;0.00;0.00;;;;;;;;;;5072962;28;20449;-81
2023/08/31 14:01:03;;;;;;;0.10;0.10;;;;;;;;;;5062039;28;20241;-79
2023/08/31 14:03:29;;;;;;;0.80;0.80;;;;;;;;;;5073539;28;20207;-78
2023/08/31 14:05:56;;;;;;;0.00;0.00;;;;;;;;;;5061498;28;20316;-79
2023/08/31 14:08:22;;;;;;;0.10;0.10;;;;;;;;;;5074505;28;20210;-78
2023/08/31 14:10:49;;;;;;;0.10;0.10;;;;;;;;;;5060289;28;20257;-78
2023/08/31 14:13:16;;;;;;;0.08;0.08;;;;;;;;;;5075086;28;20207;-79
2023/08/31 14:15:46;;;;;;;0.10;0.10;;;;;;;;;;5059543;28;20445;-78
2023/08/31 14:18:12;;;;;;;0.00;0.00;;;;;;;;;;5075644;28;20206;-78
2023/08/31 14:20:39;;;;;;;0.10;0.10;;;;;;;;;;5058573;28;20304;-78
2023/08/31 14:23:05;;;;;;;0.05;0.05;;;;;;;;;;5076392;28;20280;-77
2023/08/31 14:25:34;;;;;;;0.10;0.10;;;;;;;;;;5057775;28;20265;-78
2023/08/31 14:28:00;;;;;;;0.00;0.00;;;;;;;;;;5076929;28;20230;-78
2023/08/31 14:30:28;;;;;;;0.10;0.10;;;;;;;;;;5057042;28;20265;-78
2023/08/31 14:32:54;;;;;;;0.10;0.10;;;;;;;;;;5077655;28;20281;-78
2023/08/31 14:35:21;;;;;;;0.05;0.05;;;;;;;;;;5056250;28;20447;-79
2023/08/31 14:37:47;;;;;;;0.10;0.10;;;;;;;;;;5078657;28;20435;-78
2023/08/31 14:40:14;;;;;;;0.10;0.10;;;;;;;;;;5054880;28;20199;-78
2023/08/31 14:42:40;;;;;;;0.08;0.08;;;;;;;;;;5079280;28;20283;-78
2023/08/31 14:45:07;;;;;;;0.10;0.10;;;;;;;;;;5064645;28;20228;-77
2023/08/31 14:47:34;;;;;;;0.00;0.00;;;;;;;;;;5052959;28;20216;-78
2023/08/31 14:50:01;;;;;;;0.10;0.10;;;;;;;;;;5064123;28;20221;-78